Time;durP1;ratioP1;P1;durP2;ratioP2;P2;SDS_P1;SDS_P2;PMS_P1;PMS_P2;Temp;Humidity;BMP_temperature;BMP_pressure;BME280_temperature;BME280_humidity;BME280_pressure;Samples;Min_cycle;Max_cycle;Signal;HPM_P1;HPM_P2
2023/01/12 00:01:41;;;;;;;20.08;8.05;;;5.30;99.90;;;;;;4952852;28;20051;-69
2023/01/12 00:04:11;;;;;;;11.27;7.43;;;5.30;99.90;;;;;;4954564;28;20471;-64
2023/01/12 00:06:39;;;;;;;10.30;7.07;;;5.20;99.90;;;;;;4955778;28;20038;-67
2023/01/12 00:09:06;;;;;;;14.23;7.05;;;5.10;99.90;;;;;;4957168;28;20138;-67
2023/01/12 00:11:34;;;;;;;16.08;9.07;;;5.10;99.90;;;;;;4951863;28;20134;-65
2023/01/12 00:14:01;;;;;;;10.73;5.97;;;5.10;99.90;;;;;;4946901;28;20053;-64
2023/01/12 00:16:34;;;;;;;11.98;7.47;;;5.10;99.90;;;;;;4958316;28;20062;-65
2023/01/12 00:19:17;;;;;;;10.55;7.65;;;5.10;99.90;;;;;;4956043;28;20589;-68
2023/01/12 00:24:18;;;;;;;13.27;6.53;;;5.00;99.90;;;;;;4953650;28;20059;-70
2023/01/12 00:26:47;;;;;;;12.77;7.22;;;5.00;99.90;;;;;;4959121;28;20152;-64
2023/01/12 00:29:15;;;;;;;12.05;7.43;;;5.00;99.90;;;;;;4946365;28;20157;-66
2023/01/12 00:31:42;;;;;;;13.80;6.15;;;5.00;99.90;;;;;;4954249;28;20494;-73
2023/01/12 00:34:09;;;;;;;13.32;6.70;;;5.00;99.90;;;;;;4955217;28;20042;-68
2023/01/12 00:36:36;;;;;;;13.55;6.93;;;5.00;99.90;;;;;;4956600;28;20049;-65
2023/01/12 00:39:04;;;;;;;15.38;8.55;;;5.00;99.90;;;;;;4954705;28;20555;-65
2023/01/12 00:47:04;;;;;;;10.98;6.93;;;5.00;99.90;;;;;;4954934;28;20142;-65
2023/01/12 00:49:31;;;;;;;20.25;6.65;;;5.00;99.90;;;;;;4957247;28;20047;-67
2023/01/12 00:51:57;;;;;;;17.08;7.28;;;5.00;99.90;;;;;;4973742;28;20113;-64
2023/01/12 00:54:24;;;;;;;19.30;6.70;;;5.00;99.90;;;;;;4961005;28;20113;-65
2023/01/12 00:56:51;;;;;;;18.27;7.65;;;5.00;99.90;;;;;;4955323;28;20064;-66
2023/01/12 00:59:18;;;;;;;10.02;6.18;;;5.00;99.90;;;;;;4956174;28;20054;-64
2023/01/12 01:01:45;;;;;;;14.23;7.07;;;5.00;99.90;;;;;;4946641;28;20047;-66
2023/01/12 01:04:12;;;;;;;13.50;5.80;;;5.00;99.90;;;;;;4959714;28;20082;-67
2023/01/12 01:06:39;;;;;;;11.57;6.15;;;5.00;99.90;;;;;;4957539;28;20154;-68
2023/01/12 01:09:06;;;;;;;18.33;7.03;;;4.90;99.90;;;;;;4955188;28;20059;-67
2023/01/12 01:11:34;;;;;;;14.75;6.57;;;4.90;99.90;;;;;;4955253;28;20150;-64
2023/01/12 01:14:01;;;;;;;15.15;7.25;;;4.90;99.90;;;;;;4951209;28;20236;-73
2023/01/12 01:16:29;;;;;;;12.07;6.28;;;4.90;99.90;;;;;;4949188;28;20133;-66
2023/01/12 01:18:57;;;;;;;12.93;8.18;;;4.80;99.90;;;;;;4952610;28;20051;-66
2023/01/12 01:21:24;;;;;;;10.55;5.85;;;4.80;99.90;;;;;;4955292;28;20058;-64
2023/01/12 01:23:51;;;;;;;23.02;9.70;;;4.70;99.90;;;;;;4952269;28;20047;-64
2023/01/12 01:26:22;;;;;;;15.98;7.97;;;4.70;99.90;;;;;;4960053;28;20044;-69
2023/01/12 01:28:49;;;;;;;24.33;8.55;;;4.70;99.90;;;;;;4955692;28;20070;-67
2023/01/12 01:31:22;;;;;;;18.13;7.15;;;4.70;99.90;;;;;;4956402;28;20046;-65
2023/01/12 01:33:50;;;;;;;22.52;10.25;;;4.60;99.90;;;;;;4950682;28;20057;-67
2023/01/12 01:36:17;;;;;;;15.45;7.03;;;4.60;99.90;;;;;;4959482;28;20047;-66
2023/01/12 01:38:46;;;;;;;18.33;6.85;;;4.60;99.90;;;;;;4952533;28;20077;-66
2023/01/12 01:41:18;;;;;;;14.43;6.85;;;4.60;99.90;;;;;;4954784;28;20141;-65
2023/01/12 01:43:51;;;;;;;15.43;6.85;;;4.60;99.90;;;;;;4948243;28;20537;-65
2023/01/12 01:46:36;;;;;;;16.27;7.53;;;4.50;99.90;;;;;;4956408;28;20509;-65
2023/01/12 01:49:33;;;;;;;18.58;6.55;;;4.50;99.90;;;;;;4950519;28;20046;-64
2023/01/12 01:52:17;;;;;;;14.50;7.13;;;4.40;99.90;;;;;;4954164;28;20051;-66
2023/01/12 01:55:18;;;;;;;17.30;6.85;;;4.40;99.90;;;;;;4957745;28;20054;-65
2023/01/12 01:57:50;;;;;;;20.52;6.82;;;4.30;99.90;;;;;;4948886;28;20110;-65
2023/01/12 02:00:18;;;;;;;12.55;6.47;;;4.30;99.90;;;;;;4956371;28;20133;-67
2023/01/12 02:02:46;;;;;;;11.68;6.43;;;4.30;99.90;;;;;;4956740;28;20047;-64
2023/01/12 02:05:18;;;;;;;16.30;7.75;;;4.30;99.90;;;;;;4945571;28;20112;-69
2023/01/12 02:07:48;;;;;;;16.40;6.78;;;4.30;99.90;;;;;;4957667;28;20075;-64
2023/01/12 02:10:17;;;;;;;33.63;11.57;;;4.20;99.90;;;;;;4955641;28;20142;-65
2023/01/12 02:18:48;;;;;;;12.85;5.72;;;4.20;99.90;;;;;;4954987;28;20145;-66
2023/01/12 02:21:52;;;;;;;12.90;6.00;;;4.20;99.90;;;;;;4952966;28;20075;-64
2023/01/12 02:24:44;;;;;;;14.48;6.05;;;4.20;99.90;;;;;;4951398;28;20059;-64
2023/01/12 02:27:36;;;;;;;18.05;6.40;;;4.10;99.90;;;;;;4954371;28;20207;-67
2023/01/12 02:30:15;;;;;;;14.20;5.45;;;4.10;99.90;;;;;;4951954;28;20061;-69
2023/01/12 02:33:01;;;;;;;16.38;6.68;;;4.10;99.90;;;;;;4959752;28;20052;-65
2023/01/12 02:35:42;;;;;;;13.73;6.00;;;4.20;99.90;;;;;;4952752;28;20053;-64
2023/01/12 02:38:32;;;;;;;15.35;7.18;;;4.20;99.90;;;;;;4952137;28;20054;-68
2023/01/12 02:41:16;;;;;;;12.85;6.15;;;4.20;99.90;;;;;;4956348;28;20051;-71
2023/01/12 02:43:43;;;;;;;15.30;5.80;;;4.20;99.90;;;;;;4952115;28;20054;-64
2023/01/12 02:46:22;;;;;;;20.73;5.43;;;4.20;99.90;;;;;;4955914;28;20509;-64
2023/01/12 02:49:02;;;;;;;20.58;6.32;;;4.20;99.90;;;;;;4954056;28;20084;-68
2023/01/12 02:51:38;;;;;;;10.45;5.53;;;4.20;99.90;;;;;;4960764;28;20390;-68
2023/01/12 02:54:10;;;;;;;16.08;5.82;;;4.20;99.90;;;;;;4952839;28;20050;-66
2023/01/12 02:56:50;;;;;;;15.48;6.10;;;4.20;99.90;;;;;;4960998;28;20046;-70
2023/01/12 02:59:23;;;;;;;18.08;5.85;;;4.20;99.90;;;;;;4954801;28;20051;-70
2023/01/12 03:01:53;;;;;;;20.27;5.90;;;4.20;99.90;;;;;;4951041;28;20079;-65
2023/01/12 03:04:21;;;;;;;15.93;6.03;;;4.20;99.90;;;;;;4954505;28;20162;-64
2023/01/12 03:06:57;;;;;;;22.02;5.55;;;4.20;99.90;;;;;;4956322;28;20300;-70
2023/01/12 03:09:29;;;;;;;28.63;5.93;;;4.20;99.90;;;;;;4953279;28;20111;-65
2023/01/12 03:12:02;;;;;;;27.70;6.55;;;4.20;99.90;;;;;;4958920;28;20051;-67
2023/01/12 03:14:32;;;;;;;20.55;6.78;;;4.20;99.90;;;;;;4953878;28;20059;-71
2023/01/12 03:17:04;;;;;;;29.58;7.20;;;4.20;99.90;;;;;;4955403;28;20055;-64
2023/01/12 03:19:32;;;;;;;17.65;7.72;;;4.20;99.90;;;;;;4957426;28;20238;-65
2023/01/12 03:22:12;;;;;;;21.60;7.07;;;4.20;99.90;;;;;;4959671;28;20081;-65
2023/01/12 03:24:45;;;;;;;17.52;6.07;;;4.20;99.90;;;;;;4955293;28;20438;-67
2023/01/12 03:27:20;;;;;;;22.38;6.20;;;4.20;99.90;;;;;;4956255;28;20058;-64
2023/01/12 03:29:58;;;;;;;18.40;5.25;;;4.20;99.90;;;;;;4949270;28;20063;-68
2023/01/12 03:32:26;;;;;;;19.52;5.75;;;4.20;99.90;;;;;;4966338;28;20046;-64
2023/01/12 03:34:53;;;;;;;33.78;9.90;;;4.20;99.90;;;;;;4960256;28;20046;-65
2023/01/12 03:37:33;;;;;;;17.13;5.90;;;4.30;99.90;;;;;;4958307;28;20079;-67
2023/01/12 03:40:05;;;;;;;13.52;5.65;;;4.30;99.90;;;;;;4953557;28;20086;-68
2023/01/12 03:42:51;;;;;;;22.15;5.80;;;4.20;99.90;;;;;;4961095;28;20050;-67
2023/01/12 03:45:45;;;;;;;21.60;8.27;;;4.30;99.90;;;;;;4961371;28;20050;-67
2023/01/12 03:48:18;;;;;;;17.48;7.50;;;4.30;99.90;;;;;;4957981;28;20061;-65
2023/01/12 03:50:57;;;;;;;26.13;6.95;;;4.40;99.90;;;;;;4956345;28;20055;-65
2023/01/12 03:53:24;;;;;;;21.52;9.02;;;4.40;99.90;;;;;;4960124;28;20081;-64
2023/01/12 03:55:58;;;;;;;20.02;6.05;;;4.40;99.90;;;;;;4950394;28;20043;-64
2023/01/12 03:58:25;;;;;;;28.08;7.90;;;4.40;99.90;;;;;;4955160;28;20166;-67
2023/01/12 04:00:52;;;;;;;20.10;5.18;;;4.40;99.90;;;;;;4955112;28;20504;-68
2023/01/12 04:03:19;;;;;;;23.20;5.88;;;4.40;99.90;;;;;;4958012;28;20047;-64
2023/01/12 04:05:46;;;;;;;24.83;6.05;;;4.40;99.90;;;;;;4953338;28;20043;-68
2023/01/12 04:08:14;;;;;;;31.05;7.85;;;4.40;99.90;;;;;;4956689;28;20125;-66
2023/01/12 04:10:41;;;;;;;20.50;6.03;;;4.40;99.90;;;;;;4955429;28;20083;-68
2023/01/12 04:13:08;;;;;;;26.60;8.93;;;4.40;99.90;;;;;;4958706;28;20054;-65
2023/01/12 04:15:37;;;;;;;18.38;7.68;;;4.40;99.90;;;;;;4956443;28;20412;-69
2023/01/12 04:18:04;;;;;;;20.38;7.68;;;4.40;99.90;;;;;;4960617;28;20150;-63
2023/01/12 04:20:31;;;;;;;20.25;8.35;;;4.40;99.90;;;;;;4957463;28;20067;-66
2023/01/12 04:22:58;;;;;;;23.67;7.15;;;4.40;99.90;;;;;;4956301;28;20086;-71
2023/01/12 04:25:25;;;;;;;23.48;7.65;;;4.40;99.90;;;;;;4953615;28;20058;-64
2023/01/12 04:27:55;;;;;;;31.38;7.95;;;4.40;99.90;;;;;;4951406;28;20158;-63
2023/01/12 04:30:25;;;;;;;13.90;5.78;;;4.30;99.90;;;;;;4956976;28;20043;-66
2023/01/12 04:32:54;;;;;;;14.57;6.85;;;4.30;99.90;;;;;;4953794;28;20053;-65
2023/01/12 04:35:23;;;;;;;30.23;5.72;;;4.30;99.90;;;;;;4957942;28;20145;-64
2023/01/12 04:37:51;;;;;;;40.05;9.60;;;4.30;99.90;;;;;;4953086;28;20761;-66
2023/01/12 04:40:18;;;;;;;14.40;4.82;;;4.30;99.90;;;;;;4957147;28;20457;-64
2023/01/12 04:42:59;;;;;;;27.80;6.95;;;4.40;99.90;;;;;;4955875;28;20090;-64
2023/01/12 04:45:32;;;;;;;16.52;4.47;;;4.40;99.90;;;;;;4957264;28;20836;-65
2023/01/12 04:48:08;;;;;;;25.13;4.85;;;4.40;99.90;;;;;;4955375;28;20133;-67
2023/01/12 04:50:36;;;;;;;17.80;5.88;;;4.50;99.90;;;;;;4952943;28;20066;-64
2023/01/12 04:53:09;;;;;;;12.60;4.05;;;4.50;99.90;;;;;;4960671;28;20299;-67
2023/01/12 04:55:38;;;;;;;14.98;4.70;;;4.40;99.90;;;;;;4952260;28;20055;-64
2023/01/12 04:58:06;;;;;;;24.08;5.20;;;4.40;99.90;;;;;;4951314;28;20069;-65
2023/01/12 05:00:34;;;;;;;22.00;4.70;;;4.50;99.90;;;;;;4953859;28;20047;-65
2023/01/12 05:03:02;;;;;;;21.23;5.85;;;4.40;99.90;;;;;;4955500;28;20051;-71
2023/01/12 05:05:31;;;;;;;15.48;5.13;;;4.40;99.90;;;;;;4955797;28;20073;-66
2023/01/12 05:10:52;;;;;;;27.33;6.82;;;4.50;99.90;;;;;;4953277;28;20130;-63
2023/01/12 05:13:19;;;;;;;14.02;3.72;;;4.50;99.90;;;;;;4957428;28;20051;-66
2023/01/12 05:15:46;;;;;;;23.65;5.22;;;4.40;99.90;;;;;;4948350;28;20050;-65
2023/01/12 05:18:13;;;;;;;23.38;4.18;;;4.40;99.90;;;;;;4959318;28;20042;-63
2023/01/12 05:20:40;;;;;;;10.40;4.07;;;4.40;99.90;;;;;;4955606;28;20496;-67
2023/01/12 05:23:07;;;;;;;17.02;4.65;;;4.40;99.90;;;;;;4953888;28;20073;-64
2023/01/12 05:25:34;;;;;;;16.50;4.57;;;4.40;99.90;;;;;;4960294;28;20516;-64
2023/01/12 05:28:01;;;;;;;18.77;7.07;;;4.40;99.90;;;;;;4955999;28;20051;-71
2023/01/12 05:30:28;;;;;;;24.45;5.63;;;4.40;99.90;;;;;;4951310;28;20051;-64
2023/01/12 05:32:57;;;;;;;19.10;5.20;;;4.30;99.90;;;;;;4944930;28;20126;-69
2023/01/12 05:35:24;;;;;;;22.55;6.20;;;4.40;99.90;;;;;;4957390;28;20364;-65
2023/01/12 05:37:54;;;;;;;16.90;5.53;;;4.40;99.90;;;;;;4951161;28;20059;-65
2023/01/12 05:40:21;;;;;;;19.95;5.70;;;4.40;99.90;;;;;;4959432;28;20079;-66
2023/01/12 05:45:37;;;;;;;19.00;6.22;;;4.50;99.90;;;;;;4952833;28;20043;-66
2023/01/12 05:48:04;;;;;;;23.30;4.45;;;4.50;99.90;;;;;;4940893;28;20054;-67
2023/01/12 05:50:31;;;;;;;14.00;5.28;;;4.60;99.90;;;;;;4952565;28;20674;-68
2023/01/12 05:53:15;;;;;;;32.05;5.95;;;4.60;99.90;;;;;;4951079;28;20039;-65
2023/01/12 05:55:42;;;;;;;23.15;7.25;;;4.60;99.90;;;;;;4950905;28;20515;-68
2023/01/12 05:58:09;;;;;;;25.25;6.47;;;4.60;99.90;;;;;;4948978;28;20050;-67
2023/01/12 06:00:36;;;;;;;17.05;4.85;;;4.60;99.90;;;;;;4947300;28;20054;-68
2023/01/12 06:03:03;;;;;;;15.75;4.78;;;4.70;99.90;;;;;;4944924;28;20046;-65
2023/01/12 06:05:30;;;;;;;18.73;5.70;;;4.70;99.90;;;;;;4947916;28;20069;-64
2023/01/12 06:07:57;;;;;;;11.77;4.40;;;4.70;99.90;;;;;;4944733;28;20047;-71
2023/01/12 06:10:24;;;;;;;15.02;4.50;;;4.80;99.90;;;;;;4947053;28;20059;-64
2023/01/12 06:15:37;;;;;;;38.90;8.60;;;4.80;99.90;;;;;;4948380;28;20051;-64
2023/01/12 06:18:04;;;;;;;24.92;5.43;;;4.90;99.90;;;;;;4943953;28;20506;-66
2023/01/12 06:20:31;;;;;;;11.55;4.10;;;4.80;99.90;;;;;;4942818;28;20441;-64
2023/01/12 06:23:02;;;;;;;18.02;5.40;;;4.80;99.90;;;;;;4946439;28;20417;-70
2023/01/12 06:25:29;;;;;;;17.42;6.32;;;4.80;99.90;;;;;;4948743;28;20086;-65
2023/01/12 06:27:56;;;;;;;13.30;4.95;;;4.80;99.90;;;;;;4950734;28;20058;-66
2023/01/12 06:30:23;;;;;;;14.77;6.97;;;4.80;99.90;;;;;;4949272;28;20047;-64
2023/01/12 06:32:50;;;;;;;19.88;6.55;;;4.80;99.90;;;;;;4947429;28;20089;-63
2023/01/12 06:35:17;;;;;;;23.48;7.97;;;4.80;99.90;;;;;;4946708;28;20145;-73
2023/01/12 06:37:46;;;;;;;23.27;7.65;;;4.80;99.90;;;;;;4949453;28;20054;-66
2023/01/12 06:40:12;;;;;;;26.15;8.65;;;4.90;99.90;;;;;;4953191;28;20709;-66
2023/01/12 06:42:40;;;;;;;19.23;6.22;;;4.90;99.90;;;;;;4950880;28;20616;-64
2023/01/12 06:45:08;;;;;;;26.10;8.68;;;4.90;99.90;;;;;;4944580;28;20059;-65
2023/01/12 06:47:46;;;;;;;21.27;8.88;;;4.90;99.90;;;;;;4947467;28;20066;-69
2023/01/12 06:50:13;;;;;;;17.67;9.32;;;4.90;99.90;;;;;;4950760;28;20058;-65
2023/01/12 06:52:41;;;;;;;20.13;7.07;;;5.00;99.90;;;;;;4945808;28;20502;-72
2023/01/12 06:55:08;;;;;;;26.58;8.35;;;5.00;99.90;;;;;;4954922;28;20047;-63
2023/01/12 06:57:35;;;;;;;19.52;8.48;;;5.00;99.90;;;;;;4952125;28;20150;-71
2023/01/12 07:00:03;;;;;;;24.77;7.68;;;5.00;99.90;;;;;;4947867;28;20170;-63
2023/01/12 07:02:30;;;;;;;33.05;10.98;;;5.10;99.90;;;;;;4953077;28;20469;-63
2023/01/12 07:04:57;;;;;;;22.40;8.20;;;5.10;99.90;;;;;;4954047;28;20073;-70
2023/01/12 07:07:24;;;;;;;24.50;10.40;;;5.10;99.90;;;;;;4950279;28;20070;-66
2023/01/12 07:09:51;;;;;;;24.60;9.40;;;5.10;99.90;;;;;;4954096;28;20422;-66
2023/01/12 07:12:18;;;;;;;17.58;9.55;;;5.20;99.90;;;;;;4946705;28;20118;-64
2023/01/12 07:14:44;;;;;;;26.73;12.32;;;5.20;99.90;;;;;;4950886;28;20452;-65
2023/01/12 07:17:11;;;;;;;32.38;12.88;;;5.20;99.90;;;;;;4948261;28;20596;-64
2023/01/12 07:19:38;;;;;;;22.38;10.45;;;5.20;99.90;;;;;;4954339;28;20044;-64
2023/01/12 07:22:07;;;;;;;22.27;11.13;;;5.20;99.90;;;;;;4950107;28;20791;-63
2023/01/12 07:24:34;;;;;;;22.70;11.90;;;5.30;99.90;;;;;;4951524;28;20058;-66
2023/01/12 07:27:00;;;;;;;28.58;11.95;;;5.30;99.90;;;;;;4950295;28;20145;-64
2023/01/12 07:29:27;;;;;;;31.30;12.45;;;5.30;99.90;;;;;;4952680;28;20249;-65
2023/01/12 07:31:54;;;;;;;31.08;11.90;;;5.30;99.90;;;;;;4950899;28;20498;-70
2023/01/12 07:34:21;;;;;;;35.92;12.27;;;5.40;99.90;;;;;;4955139;28;20057;-65
2023/01/12 07:36:49;;;;;;;24.23;12.07;;;5.40;99.90;;;;;;4955842;28;20047;-65
2023/01/12 07:39:16;;;;;;;35.30;14.30;;;5.40;99.90;;;;;;4953855;28;20149;-65
2023/01/12 07:44:29;;;;;;;28.85;12.77;;;5.40;99.90;;;;;;4953607;28;20043;-65
2023/01/12 07:46:58;;;;;;;28.80;14.15;;;5.50;99.90;;;;;;4956583;28;20047;-64
2023/01/12 07:49:25;;;;;;;29.05;14.15;;;5.50;99.90;;;;;;4952952;28;20059;-67
2023/01/12 07:51:54;;;;;;;27.98;12.82;;;5.50;99.90;;;;;;4955937;28;20447;-63
2023/01/12 07:54:21;;;;;;;27.92;12.38;;;5.50;99.90;;;;;;4952271;28;20090;-65
2023/01/12 07:56:48;;;;;;;28.58;14.13;;;5.60;99.90;;;;;;4957722;28;20097;-64
2023/01/12 07:59:16;;;;;;;26.60;13.68;;;5.60;99.90;;;;;;4958031;28;20047;-71
2023/01/12 08:01:43;;;;;;;34.20;13.52;;;5.60;99.90;;;;;;4953103;28;20702;-67
2023/01/12 08:04:10;;;;;;;19.33;12.07;;;5.60;99.90;;;;;;4956464;28;20051;-65
2023/01/12 08:06:37;;;;;;;25.65;13.68;;;5.60;99.90;;;;;;4958248;28;20161;-67
2023/01/12 08:09:04;;;;;;;27.70;12.88;;;5.60;99.90;;;;;;4953957;28;20075;-64
2023/01/12 08:11:31;;;;;;;25.98;13.15;;;5.60;99.90;;;;;;4950322;28;20115;-63
2023/01/12 08:13:58;;;;;;;35.35;14.68;;;5.60;99.90;;;;;;4953033;28;20053;-66
2023/01/12 08:16:30;;;;;;;32.70;12.25;;;5.70;99.90;;;;;;4958628;28;20466;-70
2023/01/12 08:19:04;;;;;;;28.90;13.05;;;5.70;99.90;;;;;;4957320;28;20434;-64
2023/01/12 08:21:43;;;;;;;46.05;15.80;;;5.70;99.90;;;;;;4959935;28;20085;-65
2023/01/12 08:24:15;;;;;;;24.30;12.63;;;5.70;99.90;;;;;;4954678;28;20047;-64
2023/01/12 08:26:44;;;;;;;18.77;10.27;;;5.70;99.90;;;;;;4953793;28;20047;-65
2023/01/12 08:29:22;;;;;;;24.10;10.90;;;5.70;99.90;;;;;;4947704;28;20166;-63
2023/01/12 08:31:49;;;;;;;28.38;10.82;;;5.70;99.90;;;;;;4954226;28;20059;-65
2023/01/12 08:34:16;;;;;;;24.35;10.50;;;5.70;99.90;;;;;;4953918;28;20097;-69
2023/01/12 08:36:42;;;;;;;29.63;9.55;;;5.70;99.90;;;;;;4955040;28;20043;-65
2023/01/12 08:39:10;;;;;;;23.23;9.35;;;5.70;99.90;;;;;;4956170;28;20245;-64
2023/01/12 08:41:39;;;;;;;21.92;8.18;;;5.70;99.90;;;;;;4950304;28;20039;-67
2023/01/12 08:44:10;;;;;;;19.58;7.30;;;5.70;99.90;;;;;;4948662;28;20055;-64
2023/01/12 08:46:38;;;;;;;19.15;6.95;;;5.70;99.90;;;;;;4956933;28;20075;-64
2023/01/12 08:49:10;;;;;;;13.73;7.28;;;5.70;99.90;;;;;;4957524;28;20070;-65
2023/01/12 08:51:43;;;;;;;13.80;7.72;;;5.70;99.90;;;;;;4956277;28;20051;-63
2023/01/12 08:54:11;;;;;;;15.73;7.15;;;5.70;99.90;;;;;;4954583;28;20451;-65
2023/01/12 08:56:38;;;;;;;13.65;7.68;;;5.70;99.90;;;;;;4954075;28;20074;-64
2023/01/12 08:59:05;;;;;;;14.35;5.68;;;5.70;99.90;;;;;;4950060;28;20615;-66
2023/01/12 09:01:33;;;;;;;10.55;6.40;;;5.60;99.90;;;;;;4953375;28;20055;-64
2023/01/12 09:04:00;;;;;;;15.98;5.82;;;5.60;99.90;;;;;;4954500;28;20055;-67
2023/01/12 09:06:30;;;;;;;12.65;5.32;;;5.60;99.90;;;;;;4952336;28;20448;-63
2023/01/12 09:08:59;;;;;;;11.38;4.35;;;5.50;99.90;;;;;;4956680;28;20055;-68
2023/01/12 09:11:28;;;;;;;9.00;5.07;;;5.50;99.90;;;;;;4955637;28;20508;-65
2023/01/12 09:13:57;;;;;;;7.63;4.75;;;5.40;99.90;;;;;;4954780;28;20061;-67
2023/01/12 09:16:26;;;;;;;13.57;4.45;;;5.40;99.90;;;;;;4951984;28;20501;-72
2023/01/12 09:18:53;;;;;;;5.80;3.50;;;5.40;99.90;;;;;;4955850;28;20054;-66
2023/01/12 09:21:22;;;;;;;9.98;3.33;;;5.30;99.90;;;;;;4953854;28;20066;-64
2023/01/12 09:23:49;;;;;;;9.80;3.85;;;5.30;99.90;;;;;;4951186;28;20101;-68
2023/01/12 09:26:19;;;;;;;6.35;2.75;;;5.20;99.90;;;;;;4956304;28;20057;-64
2023/01/12 09:28:46;;;;;;;8.45;3.33;;;5.20;99.90;;;;;;4955621;28;20215;-65
2023/01/12 09:31:15;;;;;;;7.13;3.08;;;5.20;99.90;;;;;;4952186;28;20065;-63
2023/01/12 09:33:45;;;;;;;14.82;5.18;;;5.20;99.90;;;;;;4952874;28;20054;-65
2023/01/12 09:36:15;;;;;;;6.75;2.47;;;5.20;99.90;;;;;;4955202;28;20058;-67
2023/01/12 09:38:43;;;;;;;5.72;2.47;;;5.20;99.90;;;;;;4954057;28;20165;-65
2023/01/12 09:41:13;;;;;;;5.60;3.67;;;5.20;99.90;;;;;;4953413;28;20137;-64
2023/01/12 09:49:27;;;;;;;9.48;4.18;;;5.30;99.90;;;;;;4956589;28;20781;-64
2023/01/12 09:52:12;;;;;;;15.15;4.95;;;5.30;99.90;;;;;;4955764;28;20051;-66
2023/01/12 09:54:39;;;;;;;21.35;7.22;;;5.30;99.90;;;;;;4958677;28;20120;-64
2023/01/12 09:57:18;;;;;;;17.85;9.00;;;5.30;99.90;;;;;;4957083;28;20157;-66
2023/01/12 10:00:05;;;;;;;14.27;6.25;;;5.30;99.90;;;;;;4947957;28;20317;-68
2023/01/12 10:02:43;;;;;;;10.50;5.82;;;5.30;99.90;;;;;;4949359;28;20084;-65
2023/01/12 10:05:40;;;;;;;16.20;5.88;;;5.40;99.90;;;;;;4953674;28;20051;-63
2023/01/12 10:08:33;;;;;;;15.65;5.75;;;5.40;99.90;;;;;;4942588;28;20058;-66
2023/01/12 10:11:06;;;;;;;20.27;6.20;;;5.40;99.90;;;;;;4948905;28;20051;-71
2023/01/12 10:13:54;;;;;;;11.00;6.50;;;5.50;99.90;;;;;;4955013;28;20149;-64
2023/01/12 10:17:04;;;;;;;21.02;9.13;;;5.50;99.90;;;;;;4951454;28;20477;-64
2023/01/12 10:20:03;;;;;;;15.23;7.13;;;5.50;99.90;;;;;;4942020;28;20150;-63
2023/01/12 10:22:46;;;;;;;19.65;7.63;;;5.60;99.90;;;;;;4944744;28;20419;-64
2023/01/12 10:25:36;;;;;;;20.40;8.90;;;5.60;99.90;;;;;;4954431;28;20109;-64
2023/01/12 10:28:16;;;;;;;20.65;7.50;;;5.60;99.90;;;;;;4952184;28;20139;-63
2023/01/12 10:30:44;;;;;;;18.67;6.75;;;5.60;99.90;;;;;;4954368;28;20054;-64
2023/01/12 10:33:41;;;;;;;13.35;6.40;;;5.70;99.90;;;;;;4951194;28;20077;-67
2023/01/12 10:36:15;;;;;;;31.15;6.60;;;5.70;99.90;;;;;;4945651;28;20051;-66
2023/01/12 10:38:51;;;;;;;25.00;9.07;;;5.70;99.90;;;;;;4949179;28;20145;-67
2023/01/12 10:41:20;;;;;;;22.60;6.93;;;5.70;99.90;;;;;;4953194;28;20138;-66
2023/01/12 10:43:59;;;;;;;23.73;9.68;;;5.70;99.90;;;;;;4950779;28;20141;-65
2023/01/12 10:46:30;;;;;;;23.10;10.15;;;5.80;99.90;;;;;;4953449;28;20053;-64
2023/01/12 10:49:19;;;;;;;25.67;8.95;;;5.80;99.90;;;;;;4955731;28;20043;-69
2023/01/12 10:51:55;;;;;;;18.88;5.85;;;5.80;99.90;;;;;;4950757;28;20055;-64
2023/01/12 10:54:24;;;;;;;17.73;7.00;;;5.80;99.90;;;;;;4952783;28;20102;-64
2023/01/12 10:57:23;;;;;;;16.48;6.55;;;5.80;99.90;;;;;;4952627;28;20051;-64
2023/01/12 10:59:57;;;;;;;17.63;5.63;;;5.80;99.90;;;;;;4913814;28;20047;-65
2023/01/12 11:02:25;;;;;;;15.73;4.57;;;5.80;99.90;;;;;;4949360;28;20055;-67
2023/01/12 11:04:53;;;;;;;15.00;6.25;;;5.80;99.90;;;;;;4947295;28;20137;-67
2023/01/12 11:07:21;;;;;;;16.70;5.80;;;5.80;99.90;;;;;;4945991;28;20528;-68
2023/01/12 11:09:48;;;;;;;18.63;5.32;;;5.90;99.90;;;;;;4951628;28;20097;-66
2023/01/12 11:12:32;;;;;;;27.35;5.10;;;5.80;99.90;;;;;;4949239;28;20066;-68
2023/01/12 11:15:08;;;;;;;16.10;7.45;;;5.90;99.90;;;;;;4946305;28;20054;-70
2023/01/12 11:17:53;;;;;;;23.88;7.05;;;5.90;99.90;;;;;;4952497;28;20477;-65
2023/01/12 11:20:34;;;;;;;21.30;5.85;;;5.80;99.90;;;;;;4948699;28;20070;-67
2023/01/12 11:23:02;;;;;;;;;;;5.80;99.90;;;;;;4949832;28;20187;-70
2023/01/12 11:25:34;;;;;;;16.65;5.05;;;5.80;99.90;;;;;;4951357;28;20026;-70
2023/01/12 11:28:21;;;;;;;15.90;5.78;;;5.80;99.90;;;;;;4945487;28;20054;-62
2023/01/12 11:30:55;;;;;;;12.68;4.55;;;5.80;99.90;;;;;;4950686;28;20055;-65
2023/01/12 11:33:41;;;;;;;10.75;4.40;;;5.80;99.90;;;;;;4950084;28;20099;-63
2023/01/12 11:36:22;;;;;;;20.73;6.18;;;5.80;99.90;;;;;;4948712;28;20057;-70
2023/01/12 11:38:52;;;;;;;19.30;6.40;;;5.80;99.90;;;;;;4948092;28;20162;-65
2023/01/12 11:41:25;;;;;;;14.65;5.78;;;5.90;99.90;;;;;;4949391;28;20058;-69
2023/01/12 11:44:22;;;;;;;11.52;4.38;;;5.90;99.90;;;;;;4947637;28;20122;-69
2023/01/12 11:47:03;;;;;;;14.35;5.57;;;5.90;99.90;;;;;;4951617;28;20150;-72
2023/01/12 11:49:36;;;;;;;16.70;4.72;;;5.80;99.90;;;;;;4954639;28;20548;-67
2023/01/12 11:52:03;;;;;;;21.23;6.75;;;5.80;99.90;;;;;;4941727;28;20047;-65
2023/01/12 11:54:30;;;;;;;18.75;6.10;;;5.80;99.90;;;;;;4947933;28;20063;-71
2023/01/12 11:57:25;;;;;;;19.48;5.07;;;5.80;99.90;;;;;;4949155;28;20048;-66
2023/01/12 12:00:14;;;;;;;13.00;5.65;;;5.80;99.90;;;;;;4949908;28;20790;-66
2023/01/12 12:02:54;;;;;;;13.25;4.15;;;5.70;99.90;;;;;;4946669;28;20525;-65
2023/01/12 12:05:39;;;;;;;16.75;4.45;;;5.70;99.90;;;;;;4951493;28;21785;-63
2023/01/12 12:08:30;;;;;;;14.75;4.07;;;5.60;99.90;;;;;;4945992;28;20101;-64
2023/01/12 12:11:11;;;;;;;10.77;4.30;;;5.60;99.90;;;;;;4946949;28;20047;-67
2023/01/12 12:13:46;;;;;;;10.52;3.63;;;5.50;99.90;;;;;;4934976;28;20066;-64
2023/01/12 12:16:46;;;;;;;14.40;4.35;;;5.50;99.90;;;;;;4950788;28;20053;-65
2023/01/12 12:19:38;;;;;;;12.95;4.45;;;5.50;99.90;;;;;;4951225;28;20138;-64
2023/01/12 12:22:25;;;;;;;13.25;5.18;;;5.50;99.90;;;;;;4946705;28;20102;-71
2023/01/12 12:25:08;;;;;;;18.17;5.85;;;5.40;99.90;;;;;;4921792;28;20459;-64
2023/01/12 12:27:54;;;;;;;11.18;4.00;;;5.40;99.90;;;;;;4945378;28;20142;-70
2023/01/12 12:30:44;;;;;;;15.63;3.58;;;5.50;99.90;;;;;;4953051;28;20567;-64
2023/01/12 12:33:30;;;;;;;17.75;6.85;;;5.40;99.90;;;;;;4952535;28;20074;-66
2023/01/12 12:35:57;;;;;;;8.95;3.78;;;5.50;99.90;;;;;;4948042;28;20082;-69
2023/01/12 12:39:05;;;;;;;17.73;4.05;;;5.50;99.90;;;;;;4954507;28;20055;-64
2023/01/12 12:45:19;;;;;;;15.18;3.67;;;5.50;99.90;;;;;;4952305;28;20054;-69
2023/01/12 12:48:01;;;;;;;11.50;3.45;;;5.50;99.90;;;;;;4952094;28;20048;-65
2023/01/12 12:50:49;;;;;;;19.98;4.75;;;5.50;99.90;;;;;;4947187;28;20061;-64
2023/01/12 12:53:30;;;;;;;14.43;7.03;;;5.50;99.90;;;;;;4952750;28;20158;-63
2023/01/12 12:56:00;;;;;;;20.13;6.25;;;5.50;99.90;;;;;;4949918;28;20137;-65
2023/01/12 12:58:38;;;;;;;;;;;5.50;99.90;;;;;;4950737;28;20055;-66
2023/01/12 13:01:21;;;;;;;17.20;4.50;;;5.50;99.90;;;;;;4949253;28;19922;-65
2023/01/12 13:03:55;;;;;;;22.52;6.30;;;5.60;99.90;;;;;;4950026;28;20051;-63
2023/01/12 13:06:45;;;;;;;19.55;5.63;;;5.60;99.90;;;;;;4947997;28;20102;-63
2023/01/12 13:09:14;;;;;;;11.13;6.20;;;5.60;99.90;;;;;;4951160;28;20410;-66
2023/01/12 13:12:07;;;;;;;21.90;5.83;;;5.60;99.90;;;;;;4951077;28;20057;-64
2023/01/12 13:14:36;;;;;;;8.80;4.72;;;5.60;99.90;;;;;;4943239;28;20363;-64
2023/01/12 13:17:23;;;;;;;20.55;6.78;;;5.60;99.90;;;;;;4953821;28;20058;-69
2023/01/12 13:20:10;;;;;;;15.77;5.15;;;5.60;99.90;;;;;;4953131;28;20051;-63
2023/01/12 13:22:51;;;;;;;19.63;6.72;;;5.60;99.90;;;;;;4949994;28;20052;-67
2023/01/12 13:25:22;;;;;;;12.73;5.47;;;5.60;99.90;;;;;;4949983;28;20724;-65
2023/01/12 13:28:17;;;;;;;12.55;5.35;;;5.60;99.90;;;;;;4945537;28;20589;-65
2023/01/12 13:30:52;;;;;;;10.40;4.47;;;5.60;99.90;;;;;;4946165;28;20139;-64
2023/01/12 13:33:25;;;;;;;17.85;4.55;;;5.60;99.90;;;;;;4949746;28;20062;-68
2023/01/12 13:35:52;;;;;;;12.60;5.38;;;5.60;99.90;;;;;;4949663;28;20086;-67
2023/01/12 13:38:37;;;;;;;14.40;4.55;;;5.60;99.90;;;;;;4955422;28;20062;-66
2023/01/12 13:41:12;;;;;;;14.18;4.03;;;5.60;99.90;;;;;;4948040;28;20141;-64
2023/01/12 13:43:52;;;;;;;9.18;4.15;;;5.60;99.90;;;;;;4946268;28;20065;-64
2023/01/12 13:46:36;;;;;;;12.23;4.45;;;5.60;99.90;;;;;;4944243;28;20051;-65
2023/01/12 13:49:21;;;;;;;12.90;5.20;;;5.60;99.90;;;;;;4955740;28;20045;-66
2023/01/12 13:52:04;;;;;;;13.18;4.28;;;5.50;99.90;;;;;;4953891;28;20538;-71